sim
Sign-in with your pilot id or email,
or register
Callsign
Passwort

Schedule Details

Flight Number: DLH2421
Departure: Stockholm Arlanda Airport (ESSA) at 07:00
Arrival: Munich Airport (EDDM) at 09:10
Route: Lufthansa Passenger Schedule. Enter filed route here before submitting Pirep.

Weather Information
Getting current METAR information for ESSA 221720Z 21008KT CAVOK 12/09 Q1006 NOSIG
Getting current METAR information for EDDM 221720Z 12002KT 9999 FEW040CB 19/15 Q1010 NOSIG

Schedule Frequency

Route Map